Time;durP1;ratioP1;P1;durP2;ratioP2;P2;SDS_P1;SDS_P2;PMS_P1;PMS_P2;Temp;Humidity;BMP_temperature;BMP_pressure;BME280_temperature;BME280_humidity;BME280_pressure;Samples;Min_cycle;Max_cycle;Signal;HPM_P1;HPM_P2
2023/05/16 00:00:53;;;;;;;5.20;3.60;;;;;;;11.76;100.00;101236.06;105632;1260;76077;-51
2023/05/16 00:03:20;;;;;;;7.10;4.00;;;;;;;11.75;100.00;101264.77;105674;1258;66268;-51
2023/05/16 00:05:47;;;;;;;5.70;3.90;;;;;;;11.77;100.00;101292.59;105612;1258;73211;-50
2023/05/16 00:08:14;;;;;;;3.90;3.40;;;;;;;11.78;100.00;101318.18;105630;1260;64481;-51
2023/05/16 00:10:42;;;;;;;7.00;3.90;;;;;;;11.78;100.00;101336.86;105670;1262;62953;-51
2023/05/16 00:13:09;;;;;;;9.30;4.10;;;;;;;11.78;100.00;101346.55;105689;1260;76348;-50
2023/05/16 00:15:37;;;;;;;8.90;3.90;;;;;;;11.80;100.00;101350.84;105579;1259;67794;-51
2023/05/16 00:18:04;;;;;;;10.10;3.20;;;;;;;11.85;100.00;101351.31;105643;1257;75494;-51
2023/05/16 00:20:31;;;;;;;3.80;3.40;;;;;;;11.90;100.00;101344.16;105571;1260;63358;-51
2023/05/16 00:23:01;;;;;;;11.20;3.90;;;;;;;11.96;100.00;101338.39;105596;1255;62782;-50
2023/05/16 00:25:28;;;;;;;4.80;3.70;;;;;;;12.04;100.00;101324.88;105607;1260;76025;-51
2023/05/16 00:27:55;;;;;;;4.00;3.40;;;;;;;12.12;100.00;101308.17;105629;1261;66557;-51
2023/05/16 00:30:22;;;;;;;10.00;3.90;;;;;;;12.19;100.00;101294.24;105610;1260;75007;-51
2023/05/16 00:32:50;;;;;;;11.30;3.60;;;;;;;12.25;100.00;101286.90;105630;1258;64633;-51
2023/05/16 00:35:17;;;;;;;6.60;3.20;;;;;;;12.29;100.00;101270.93;105636;1260;61681;-51
2023/05/16 00:37:45;;;;;;;6.30;3.40;;;;;;;12.31;100.00;101235.26;105600;1260;76546;-51
2023/05/16 00:40:12;;;;;;;3.50;3.20;;;;;;;12.31;100.00;101192.86;105679;1257;67205;-51
2023/05/16 00:42:39;;;;;;;5.80;3.70;;;;;;;12.29;100.00;101158.29;105576;1263;75405;-51
2023/05/16 00:45:07;;;;;;;10.30;3.00;;;;;;;12.30;100.00;101140.62;105570;1259;63664;-51
2023/05/16 00:47:34;;;;;;;12.00;2.90;;;;;;;12.30;100.00;101121.23;105664;1259;62111;-51
2023/05/16 00:50:02;;;;;;;5.70;2.80;;;;;;;12.27;100.00;101108.30;105612;1259;75626;-51
2023/05/16 00:52:31;;;;;;;8.10;3.20;;;;;;;12.23;100.00;101098.31;105660;1258;67007;-51
2023/05/16 00:54:59;;;;;;;8.80;3.40;;;;;;;12.18;100.00;101087.15;105656;1256;74119;-51
2023/05/16 00:57:26;;;;;;;4.70;3.40;;;;;;;12.13;100.00;101073.73;105629;1258;64016;-52
2023/05/16 00:59:53;;;;;;;6.20;3.40;;;;;;;12.10;100.00;101064.25;105679;1259;61690;-51
2023/05/16 01:02:20;;;;;;;6.60;2.70;;;;;;;12.06;100.00;101062.58;105256;1258;75126;-51
2023/05/16 01:04:47;;;;;;;9.90;3.20;;;;;;;12.02;100.00;101055.04;105654;1256;66694;-51
2023/05/16 01:07:15;;;;;;;6.00;3.70;;;;;;;11.99;100.00;101046.56;105654;1260;73875;-51
2023/05/16 01:09:42;;;;;;;7.90;2.70;;;;;;;11.97;100.00;101049.55;105657;1258;64751;-51
2023/05/16 01:12:31;;;;;;;6.20;2.80;;;;;;;11.96;100.00;101049.38;105569;1258;63083;-51
2023/05/16 01:15:21;;;;;;;3.90;2.60;;;;;;;11.94;100.00;101054.06;105646;1255;76690;-51
2023/05/16 01:17:53;;;;;;;8.10;3.00;;;;;;;11.91;100.00;101054.46;105652;1260;66565;-51
2023/05/16 01:20:47;;;;;;;13.20;3.70;;;;;;;11.89;100.00;101059.67;105611;1258;75510;-51
2023/05/16 01:23:32;;;;;;;8.00;3.40;;;;;;;11.82;100.00;101064.98;105614;1260;64707;-51
2023/05/16 01:26:26;;;;;;;4.40;3.20;;;;;;;11.72;100.00;101073.05;105634;1260;62129;-51
2023/05/16 01:28:54;;;;;;;4.60;3.10;;;;;;;11.63;100.00;101102.03;105624;1259;76477;-52
2023/05/16 01:31:21;;;;;;;8.00;3.10;;;;;;;11.56;100.00;101131.16;105544;1262;67112;-51
2023/05/16 01:33:50;;;;;;;4.90;3.20;;;;;;;11.51;100.00;101164.42;105640;1260;75521;-53
2023/05/16 01:36:38;;;;;;;4.60;3.00;;;;;;;11.44;100.00;101189.71;105618;1255;64648;-51
2023/05/16 01:39:24;;;;;;;4.50;2.80;;;;;;;11.38;100.00;101221.06;105633;1260;62814;-52
2023/05/16 01:41:55;;;;;;;5.40;2.40;;;;;;;11.32;100.00;101241.49;105637;1259;76163;-52
2023/05/16 01:44:28;;;;;;;7.40;4.10;;;;;;;11.30;100.00;101256.23;105645;1259;67337;-52
2023/05/16 01:46:58;;;;;;;10.50;3.30;;;;;;;11.32;100.00;101288.84;105621;1260;75169;-51
2023/05/16 01:50:07;;;;;;;19.00;4.00;;;;;;;11.34;100.00;101311.98;105631;1255;64776;-51
2023/05/16 01:52:49;;;;;;;5.60;3.20;;;;;;;11.39;100.00;101337.36;105528;1254;61667;-52
2023/05/16 01:55:22;;;;;;;9.80;3.60;;;;;;;11.43;100.00;101350.27;105639;1254;75636;-50
2023/05/16 01:57:50;;;;;;;7.80;3.50;;;;;;;11.45;100.00;101346.98;105462;1255;66014;-50
2023/05/16 02:00:17;;;;;;;8.60;3.50;;;;;;;11.45;100.00;101344.21;105106;1258;73999;-51
2023/05/16 02:02:44;;;;;;;6.60;3.70;;;;;;;11.47;100.00;101347.81;105684;1257;63431;-52
2023/05/16 02:05:11;;;;;;;9.80;3.10;;;;;;;11.51;100.00;101357.14;105680;1260;62792;-51
2023/05/16 02:07:38;;;;;;;5.20;3.40;;;;;;;11.53;100.00;101361.27;105601;1261;76669;-51
2023/05/16 02:10:06;;;;;;;5.00;3.20;;;;;;;11.54;100.00;101371.64;105643;1259;65816;-51
2023/05/16 02:12:34;;;;;;;6.70;2.80;;;;;;;11.55;100.00;101375.43;105649;1258;73618;-52
2023/05/16 02:15:01;;;;;;;7.40;3.10;;;;;;;11.53;100.00;101375.45;105656;1259;62767;-51
2023/05/16 02:17:28;;;;;;;7.40;3.50;;;;;;;11.52;100.00;101371.98;105576;1261;61303;-52
2023/05/16 02:19:56;;;;;;;5.10;3.50;;;;;;;11.49;100.00;101369.93;105687;1260;76055;-52
2023/05/16 02:22:23;;;;;;;10.30;3.20;;;;;;;11.46;100.00;101367.87;105640;1254;65248;-52
2023/05/16 02:24:50;;;;;;;6.00;3.30;;;;;;;11.45;100.00;101365.98;105636;1259;75365;-51
2023/05/16 02:27:17;;;;;;;7.50;3.10;;;;;;;11.43;100.00;101366.86;105634;1254;64612;-51
2023/05/16 02:29:44;;;;;;;7.50;3.50;;;;;;;11.40;100.00;101369.84;105618;1260;61470;-51
2023/05/16 02:32:11;;;;;;;10.40;3.50;;;;;;;11.36;100.00;101372.80;105630;1259;76531;-52
2023/05/16 02:34:38;;;;;;;10.90;4.00;;;;;;;11.32;100.00;101371.10;105592;1254;67777;-52
2023/05/16 02:37:07;;;;;;;9.70;3.20;;;;;;;11.29;100.00;101368.55;105672;1260;75197;-51
2023/05/16 02:39:34;;;;;;;3.90;2.90;;;;;;;11.25;100.00;101368.05;105578;1257;64564;-52
2023/05/16 02:42:01;;;;;;;5.50;3.00;;;;;;;11.24;100.00;101369.77;105659;1260;61200;-51
2023/05/16 02:44:28;;;;;;;5.00;3.30;;;;;;;11.22;100.00;101375.48;105653;1254;75083;-52
2023/05/16 02:46:58;;;;;;;7.30;3.90;;;;;;;11.21;100.00;101369.94;105571;1260;66715;-51
2023/05/16 02:49:25;;;;;;;7.10;3.40;;;;;;;11.24;100.00;101371.49;105635;1257;74119;-52
2023/05/16 02:51:53;;;;;;;7.80;3.20;;;;;;;11.26;100.00;101368.04;105654;1261;62994;-51
2023/05/16 02:54:20;;;;;;;4.20;2.70;;;;;;;11.29;100.00;101368.18;105616;1260;62769;-54
2023/05/16 02:56:48;;;;;;;5.10;2.70;;;;;;;11.33;100.00;101370.06;105369;1260;76418;-52
2023/05/16 02:59:18;;;;;;;6.00;3.00;;;;;;;11.37;100.00;101373.30;105616;1255;67106;-51
2023/05/16 03:01:45;;;;;;;4.70;3.10;;;;;;;11.43;100.00;101376.20;105615;1257;73839;-51
2023/05/16 03:04:12;;;;;;;6.80;3.00;;;;;;;11.49;100.00;101375.64;105622;1260;63421;-52
2023/05/16 03:06:40;;;;;;;3.40;2.80;;;;;;;11.56;100.00;101382.67;105669;1259;62094;-52
2023/05/16 03:09:07;;;;;;;5.80;2.60;;;;;;;11.63;100.00;101386.27;105703;1260;76544;-51
2023/05/16 03:11:35;;;;;;;7.70;3.20;;;;;;;11.69;100.00;101387.23;105659;1260;67250;-51
2023/05/16 03:14:02;;;;;;;8.40;3.30;;;;;;;11.77;100.00;101390.13;105651;1260;74196;-51
2023/05/16 03:16:29;;;;;;;3.70;2.60;;;;;;;11.86;100.00;101388.66;105613;1259;63142;-52
2023/05/16 03:18:57;;;;;;;6.30;2.40;;;;;;;11.94;100.00;101394.11;105629;1259;61483;-51
2023/05/16 03:21:26;;;;;;;4.60;2.40;;;;;;;12.02;100.00;101395.45;105639;1261;75651;-51
2023/05/16 03:23:53;;;;;;;7.00;3.10;;;;;;;12.12;100.00;101397.09;105674;1255;66155;-51
2023/05/16 03:26:21;;;;;;;38.20;5.20;;;;;;;12.23;100.00;101395.77;105625;1259;74114;-51
2023/05/16 03:28:50;;;;;;;39.20;5.00;;;;;;;12.35;100.00;101395.83;105694;1254;62589;-51
2023/05/16 03:31:17;;;;;;;23.00;3.50;;;;;;;12.50;100.00;101401.73;105645;1261;62157;-51
2023/05/16 03:33:44;;;;;;;9.80;3.20;;;;;;;12.66;100.00;101404.64;105664;1254;75229;-51
2023/05/16 03:36:11;;;;;;;10.90;3.10;;;;;;;12.85;100.00;101407.19;105619;1260;66957;-51
2023/05/16 03:38:38;;;;;;;12.60;3.10;;;;;;;13.02;100.00;101400.73;105651;1261;75348;-51
2023/05/16 03:41:05;;;;;;;10.10;3.10;;;;;;;13.20;100.00;101387.84;105603;1261;62683;-51
2023/05/16 03:43:32;;;;;;;5.60;2.80;;;;;;;13.37;100.00;101361.94;105657;1254;61729;-51
2023/05/16 03:46:03;;;;;;;11.80;3.10;;;;;;;13.55;100.00;101323.33;105656;1254;75162;-51
2023/05/16 03:48:30;;;;;;;4.60;2.30;;;;;;;13.78;100.00;101269.88;105599;1260;66567;-51
2023/05/16 03:50:57;;;;;;;6.10;2.10;;;;;;;14.05;100.00;101204.78;105627;1259;74071;-51
2023/05/16 03:53:24;;;;;;;7.40;2.60;;;;;;;14.40;100.00;101103.15;105635;1257;63261;-51
2023/05/16 03:55:51;;;;;;;9.90;2.60;;;;;;;14.78;100.00;100973.52;105655;1254;62515;-52
2023/05/16 03:58:18;;;;;;;8.60;2.00;;;;;;;15.17;100.00;100845.19;105605;1259;75963;-52
2023/05/16 04:00:45;;;;;;;11.80;2.70;;;;;;;15.53;100.00;100735.87;105657;1253;67071;-52
2023/05/16 04:03:12;;;;;;;11.50;2.30;;;;;;;15.86;100.00;100659.56;105640;1257;74473;-51
2023/05/16 04:05:39;;;;;;;6.40;2.70;;;;;;;16.13;100.00;100634.54;105651;1259;61525;-51
2023/05/16 04:08:07;;;;;;;10.90;2.80;;;;;;;16.32;100.00;100646.17;105618;1254;63432;-51
2023/05/16 04:10:34;;;;;;;13.90;2.40;;;;;;;16.47;100.00;100672.77;105670;1260;76321;-51
2023/05/16 04:13:01;;;;;;;6.50;2.40;;;;;;;16.60;100.00;100694.73;105671;1258;66991;-50
2023/05/16 04:15:28;;;;;;;3.30;2.30;;;;;;;16.73;100.00;100715.13;105668;1260;75216;-50
2023/05/16 04:17:55;;;;;;;3.00;2.50;;;;;;;16.90;100.00;100739.35;105606;1254;60918;-50
2023/05/16 04:20:22;;;;;;;2.90;2.50;;;;;;;17.09;100.00;100761.62;105627;1259;61095;-50
2023/05/16 04:22:50;;;;;;;6.40;3.00;;;;;;;17.29;100.00;100792.73;105610;1260;76422;-52
2023/05/16 04:25:17;;;;;;;3.60;2.50;;;;;;;17.48;100.00;100821.10;105628;1254;67224;-51
2023/05/16 04:27:44;;;;;;;4.50;2.90;;;;;;;17.67;100.00;100841.06;105620;1260;75417;-51
2023/05/16 04:30:13;;;;;;;11.40;2.60;;;;;;;17.89;100.00;100871.55;105643;1254;63183;-52
2023/05/16 04:32:40;;;;;;;15.80;2.80;;;;;;;18.11;100.00;100901.03;105715;1259;61701;-51
2023/05/16 04:35:08;;;;;;;6.80;2.40;;;;;;;18.36;100.00;100922.31;105631;1259;76307;-50
2023/05/16 04:37:35;;;;;;;9.50;2.70;;;;;;;18.65;100.00;100937.14;105658;1259;66660;-51
2023/05/16 04:40:03;;;;;;;3.00;2.60;;;;;;;18.91;100.00;100948.58;105687;1259;75179;-50
2023/05/16 04:42:30;;;;;;;4.50;2.10;;;;;;;19.09;100.00;100951.45;105610;1254;62549;-50
2023/05/16 04:44:57;;;;;;;5.70;2.30;;;;;;;19.13;98.59;100973.33;105611;1254;62096;-50
2023/05/16 04:47:24;;;;;;;4.60;2.30;;;;;;;19.16;87.08;100987.30;105632;1259;74413;-50
2023/05/16 04:49:51;;;;;;;7.10;2.50;;;;;;;19.20;81.21;100994.33;105663;1254;66381;-50
2023/05/16 04:52:19;;;;;;;6.40;2.20;;;;;;;19.27;73.84;100985.79;105686;1259;75043;-51
2023/05/16 04:54:46;;;;;;;2.70;2.20;;;;;;;19.34;68.98;100980.73;105261;1256;60961;-51
2023/05/16 04:57:13;;;;;;;7.80;2.40;;;;;;;19.46;67.00;100985.58;105358;1257;62483;-54
2023/05/16 04:59:40;;;;;;;5.60;1.90;;;;;;;19.68;66.19;100992.07;105676;1255;75255;-51
2023/05/16 05:02:08;;;;;;;5.20;1.90;;;;;;;19.92;64.74;100983.05;105616;1256;67028;-50
2023/05/16 05:04:36;;;;;;;4.50;2.40;;;;;;;20.10;63.57;100979.89;105629;1259;74892;-50
2023/05/16 05:07:04;;;;;;;6.40;2.40;;;;;;;20.28;61.08;100942.91;105658;1259;63343;-50
2023/05/16 05:09:31;;;;;;;11.60;2.30;;;;;;;20.44;59.74;100927.71;105631;1260;62645;-50
2023/05/16 05:11:58;;;;;;;9.10;2.30;;;;;;;20.53;57.87;100899.52;105599;1256;75333;-51
2023/05/16 05:14:25;;;;;;;9.80;2.30;;;;;;;20.61;56.22;100866.34;105593;1259;67366;-51
2023/05/16 05:16:52;;;;;;;7.50;2.30;;;;;;;20.65;55.38;100863.70;105652;1258;75295;-52
2023/05/16 05:19:19;;;;;;;13.10;3.30;;;;;;;20.69;54.44;100843.67;105627;1260;62552;-52
2023/05/16 05:21:47;;;;;;;7.20;2.80;;;;;;;20.78;54.08;100853.54;105633;1259;62581;-51
2023/05/16 05:24:14;;;;;;;6.10;2.30;;;;;;;20.81;53.77;100862.34;105619;1260;75630;-53
2023/05/16 05:26:41;;;;;;;4.80;2.40;;;;;;;20.79;53.45;100856.62;105632;1259;66225;-55
2023/05/16 05:29:08;;;;;;;8.40;2.40;;;;;;;20.73;52.63;100830.28;105648;1258;75064;-54
2023/05/16 05:31:35;;;;;;;7.00;2.10;;;;;;;20.81;52.36;100835.14;105630;1257;63119;-51
2023/05/16 05:34:02;;;;;;;6.80;2.50;;;;;;;20.87;51.47;100785.70;105660;1259;61781;-52
2023/05/16 05:36:30;;;;;;;6.80;2.10;;;;;;;20.98;51.59;100807.55;105596;1258;76589;-52
2023/05/16 05:38:57;;;;;;;6.50;2.50;;;;;;;21.06;51.36;100816.54;105651;1256;67444;-51
2023/05/16 05:41:25;;;;;;;5.30;2.50;;;;;;;21.04;51.17;100818.08;105620;1260;75286;-50
2023/05/16 05:43:52;;;;;;;11.30;2.20;;;;;;;20.99;50.79;100801.35;105646;1257;61454;-51
2023/05/16 05:46:20;;;;;;;8.60;2.50;;;;;;;21.08;50.74;100810.30;105626;1257;63185;-51
2023/05/16 05:48:47;;;;;;;8.90;2.40;;;;;;;21.12;49.96;100759.94;105626;1257;76026;-52
2023/05/16 05:51:14;;;;;;;11.00;2.00;;;;;;;21.03;51.00;100857.11;105620;1259;67204;-51
2023/05/16 05:53:41;;;;;;;9.10;2.30;;;;;;;21.04;50.92;100868.79;105644;1259;75052;-53
2023/05/16 05:56:08;;;;;;;5.40;2.00;;;;;;;21.09;50.55;100834.99;105623;1259;60622;-51
2023/05/16 05:58:35;;;;;;;4.80;2.10;;;;;;;21.07;49.97;100800.89;105610;1257;61116;-50
2023/05/16 06:01:02;;;;;;;6.60;2.60;;;;;;;21.05;50.04;100831.02;105634;1259;75654;-50
2023/05/16 06:03:29;;;;;;;5.20;2.10;;;;;;;21.05;49.73;100806.63;105622;1257;66535;-51
2023/05/16 06:05:57;;;;;;;3.40;2.10;;;;;;;21.15;49.99;100848.89;105584;1260;74086;-49
2023/05/16 06:08:24;;;;;;;5.50;1.90;;;;;;;21.18;49.17;100784.63;105657;1256;62624;-50
2023/05/16 06:10:51;;;;;;;4.90;2.20;;;;;;;21.27;48.82;100746.95;105607;1256;62979;-50
2023/05/16 06:13:18;;;;;;;19.70;2.90;;;;;;;21.38;50.53;100917.76;105654;1260;75608;-50
2023/05/16 06:15:52;;;;;;;12.70;2.60;;;;;;;21.45;49.94;100864.73;105598;1256;67184;-50
2023/05/16 06:18:20;;;;;;;11.50;2.40;;;;;;;21.52;49.20;100799.83;105634;1256;73533;-50
2023/05/16 06:20:47;;;;;;;7.20;2.10;;;;;;;21.65;48.66;100768.91;105644;1260;61872;-50
2023/05/16 06:23:13;;;;;;;12.40;2.20;;;;;;;21.81;47.98;100711.77;105602;1260;63111;-50
2023/05/16 06:25:40;;;;;;;10.60;2.60;;;;;;;21.99;47.20;100640.73;105591;1261;76897;-50
2023/05/16 06:28:07;;;;;;;14.60;2.30;;;;;;;22.14;46.87;100633.20;105604;1260;66218;-50
2023/05/16 06:30:34;;;;;;;7.60;2.30;;;;;;;22.16;45.99;100543.78;105619;1259;75636;-50
2023/05/16 06:33:01;;;;;;;7.50;2.20;;;;;;;22.24;46.66;100629.35;105587;1256;63662;-50
2023/05/16 06:35:28;;;;;;;14.40;2.20;;;;;;;22.34;45.43;100510.71;105598;1260;62113;-50
2023/05/16 06:37:56;;;;;;;6.70;1.90;;;;;;;22.43;44.35;100411.73;105665;1257;76033;-50
2023/05/16 06:40:23;;;;;;;5.80;2.10;;;;;;;22.51;43.02;100252.48;105634;1256;67331;-51
2023/05/16 06:42:50;;;;;;;7.70;1.80;;;;;;;22.59;42.76;100236.19;105638;1255;75892;-51
2023/05/16 06:45:17;;;;;;;2.70;1.70;;;;;;;22.57;41.90;100150.59;105622;1257;62991;-51
2023/05/16 06:47:45;;;;;;;6.70;1.90;;;;;;;22.57;41.84;100153.38;105664;1256;62978;-51
2023/05/16 06:50:12;;;;;;;7.50;1.90;;;;;;;22.50;41.32;100114.71;105622;1258;75600;-52
2023/05/16 06:52:40;;;;;;;2.00;1.70;;;;;;;22.45;41.53;100144.41;105586;1257;66933;-52
2023/05/16 06:55:08;;;;;;;10.80;1.80;;;;;;;22.45;41.10;100117.52;105668;1256;74162;-52
2023/05/16 06:57:35;;;;;;;3.50;1.60;;;;;;;22.57;41.89;100204.73;105672;1257;63080;-52
2023/05/16 07:00:03;;;;;;;5.30;1.70;;;;;;;22.73;41.76;100212.69;105341;1257;426019;-52
2023/05/16 07:04:47;;;;;;;2.70;1.60;;;;;;;23.01;42.00;100256.78;102505;1294;602388;-51
2023/05/16 07:07:14;;;;;;;5.60;1.60;;;;;;;23.07;42.21;100278.13;105060;1267;59333;-51
2023/05/16 07:09:42;;;;;;;3.30;1.80;;;;;;;23.12;41.18;100203.67;105100;1267;61927;-51
2023/05/16 07:12:09;;;;;;;7.20;1.60;;;;;;;23.07;40.38;100095.98;104877;1267;73894;-51
2023/05/16 07:14:37;;;;;;;3.60;1.90;;;;;;;23.09;39.97;100047.80;104908;1272;66159;-51
2023/05/16 07:17:04;;;;;;;7.50;1.70;;;;;;;23.13;40.52;100116.19;104725;1271;208569;-51
2023/05/16 07:19:31;;;;;;;4.20;1.90;;;;;;;23.36;40.06;100081.55;105184;1269;61919;-53
2023/05/16 07:21:59;;;;;;;3.50;1.60;;;;;;;23.57;40.12;100061.02;105194;1267;61955;-55
2023/05/16 07:24:26;;;;;;;4.40;1.80;;;;;;;23.74;40.16;100099.84;105118;1265;73856;-54
2023/05/16 07:26:54;;;;;;;4.90;1.70;;;;;;;23.77;39.98;100057.16;105220;1268;65909;-51
2023/05/16 07:29:21;;;;;;;12.90;1.90;;;;;;;23.86;40.25;100112.11;105091;1266;74253;-52
2023/05/16 07:31:49;;;;;;;8.30;2.30;;;;;;;23.92;39.39;100027.31;105221;1269;61731;-54
2023/05/16 07:34:16;;;;;;;11.30;1.60;;;;;;;23.94;39.67;100047.58;105227;1266;61906;-55
2023/05/16 07:36:43;;;;;;;9.20;1.30;;;;;;;24.16;39.85;100080.50;105199;1267;74509;-53
2023/05/16 07:39:11;;;;;;;13.10;1.90;;;;;;;24.27;39.31;100012.63;105166;1269;66158;-52
2023/05/16 07:41:38;;;;;;;6.20;1.80;;;;;;;24.28;38.84;99946.11;105223;1264;73291;-51
2023/05/16 07:44:05;;;;;;;6.50;1.90;;;;;;;24.25;38.60;99947.55;105163;1269;62038;-51
2023/05/16 07:46:32;;;;;;;9.40;1.80;;;;;;;24.08;37.09;99755.64;105182;1267;61770;-52
2023/05/16 07:49:00;;;;;;;3.40;1.70;;;;;;;24.04;37.12;99758.32;105233;1265;74870;-53
2023/05/16 07:51:27;;;;;;;6.00;1.50;;;;;;;23.97;36.28;99649.26;104826;1269;66000;-52
2023/05/16 07:53:54;;;;;;;4.90;2.10;;;;;;;23.91;36.38;99672.56;105074;1267;74470;-53
2023/05/16 07:56:22;;;;;;;7.00;2.00;;;;;;;23.82;36.02;99617.64;105630;1263;61635;-51
2023/05/16 07:58:49;;;;;;;5.20;2.10;;;;;;;23.79;36.42;99668.42;105626;1257;62052;-51
2023/05/16 08:14:06;;;;;;;4.10;1.50;;;;;;;23.64;32.56;99138.05;102862;1290;599979;-51
2023/05/16 08:16:34;;;;;;;6.30;1.40;;;;;;;23.59;33.41;99237.09;105148;1264;61984;-52
2023/05/16 08:19:01;;;;;;;6.50;1.70;;;;;;;23.70;32.95;99248.56;105138;1267;63144;-51
2023/05/16 08:21:30;;;;;;;3.50;1.70;;;;;;;23.74;33.32;99239.73;105124;1264;73395;-51
2023/05/16 08:23:57;;;;;;;12.10;2.00;;;;;;;23.76;32.65;99201.23;105196;1264;67268;-52
2023/05/16 08:26:25;;;;;;;8.40;1.90;;;;;;;23.71;31.96;99091.80;105071;1264;75221;-51
2023/05/16 08:28:52;;;;;;;3.50;1.60;;;;;;;23.67;33.52;99223.50;105090;1261;237249;-51
2023/05/16 08:31:19;;;;;;;9.50;1.70;;;;;;;23.79;34.15;99357.38;105684;1254;62763;-51
2023/05/16 08:33:47;;;;;;;1.70;1.20;;;;;;;23.86;33.21;99264.35;105727;1254;73305;-51
2023/05/16 08:36:14;;;;;;;8.10;1.50;;;;;;;23.87;33.41;99257.92;105717;1254;67132;-52
2023/05/16 08:38:42;;;;;;;3.90;1.10;;;;;;;23.91;33.42;99296.11;105692;1254;73842;-51
2023/05/16 08:41:09;;;;;;;9.50;1.60;;;;;;;23.95;33.38;99260.52;105643;1260;62271;-51
2023/05/16 08:43:36;;;;;;;8.50;1.50;;;;;;;23.94;33.37;99268.53;105716;1259;61851;-51
2023/05/16 08:46:06;;;;;;;4.30;1.40;;;;;;;23.89;33.10;99239.24;105749;1259;75986;-51
2023/05/16 08:48:33;;;;;;;9.30;1.80;;;;;;;23.80;33.80;99333.59;105705;1260;66212;-51
2023/05/16 08:51:01;;;;;;;8.20;1.70;;;;;;;23.80;34.41;99429.42;105676;1257;74210;-51
2023/05/16 08:53:32;;;;;;;5.00;1.50;;;;;;;23.90;34.35;99430.64;105711;1254;62863;-51
2023/05/16 08:55:59;;;;;;;7.40;1.70;;;;;;;24.03;33.63;99372.06;105698;1260;61613;-51
2023/05/16 08:58:28;;;;;;;5.20;1.60;;;;;;;24.10;34.22;99407.30;105667;1257;76403;-51
2023/05/16 09:00:55;;;;;;;3.10;1.50;;;;;;;24.15;33.08;99293.77;105744;1254;66928;-51
2023/05/16 09:03:23;;;;;;;6.90;1.70;;;;;;;24.17;33.32;99292.52;105680;1257;74185;-51
2023/05/16 09:05:51;;;;;;;6.10;1.80;;;;;;;24.22;33.81;99348.98;105702;1255;62116;-52
2023/05/16 09:08:19;;;;;;;7.50;1.90;;;;;;;24.31;33.48;99294.79;105669;1254;61868;-51
2023/05/16 09:10:46;;;;;;;10.90;1.60;;;;;;;24.32;33.41;99306.48;105604;1259;74801;-52
2023/05/16 09:13:13;;;;;;;9.50;1.70;;;;;;;24.31;32.87;99234.61;105601;1257;66590;-51
2023/05/16 09:15:41;;;;;;;3.10;1.50;;;;;;;24.30;32.77;99207.80;105616;1257;74869;-51
2023/05/16 09:18:11;;;;;;;8.40;1.80;;;;;;;24.39;32.78;99203.58;105573;1257;63254;-51
2023/05/16 09:20:45;;;;;;;3.10;1.50;;;;;;;24.52;32.12;99114.87;105678;1255;62125;-52
2023/05/16 09:23:15;;;;;;;6.70;1.60;;;;;;;24.57;32.90;99191.83;105826;1252;74697;-52
2023/05/16 09:25:42;;;;;;;7.40;1.50;;;;;;;24.74;32.76;99186.83;105723;1254;66289;-51
2023/05/16 09:28:10;;;;;;;9.70;2.40;;;;;;;25.10;32.28;99149.10;105787;1254;75665;-52
2023/05/16 09:30:38;;;;;;;6.40;1.70;;;;;;;25.38;31.97;99088.41;105696;1254;61863;-51
2023/05/16 09:33:05;;;;;;;4.40;1.50;;;;;;;25.55;32.34;99126.73;105823;1254;62457;-52
2023/05/16 09:35:32;;;;;;;5.80;1.80;;;;;;;25.61;32.49;99165.92;105827;1254;75491;-52
2023/05/16 09:38:15;;;;;;;6.00;1.80;;;;;;;25.62;31.76;99068.33;105930;1256;66989;-53
2023/05/16 09:40:43;;;;;;;17.20;2.50;;;;;;;25.60;31.55;99041.50;105853;1257;73898;-51
2023/05/16 09:43:15;;;;;;;6.00;1.70;;;;;;;25.71;31.95;99079.02;105779;1254;61748;-52
2023/05/16 09:45:47;;;;;;;5.90;2.20;;;;;;;25.75;31.26;99023.20;105851;1254;63324;-52
2023/05/16 09:48:14;;;;;;;7.50;2.80;;;;;;;25.51;31.21;98998.40;105843;1254;75603;-52
2023/05/16 09:50:51;;;;;;;7.60;2.20;;;;;;;25.44;31.84;99075.27;105825;1254;65792;-52
2023/05/16 09:53:29;;;;;;;11.70;1.90;;;;;;;25.43;32.76;99190.99;105774;1254;74400;-52
2023/05/16 09:56:04;;;;;;;8.20;2.10;;;;;;;25.64;32.96;99231.09;105813;1254;62849;-51
2023/05/16 09:58:31;;;;;;;3.30;1.70;;;;;;;25.76;32.73;99250.75;105826;1254;63062;-51
2023/05/16 10:00:59;;;;;;;5.30;1.90;;;;;;;25.88;32.66;99199.35;105814;1254;74709;-52
2023/05/16 10:03:27;;;;;;;7.70;2.10;;;;;;;25.98;31.68;99095.54;105753;1254;67200;-52
2023/05/16 10:05:54;;;;;;;4.70;1.90;;;;;;;26.10;32.21;99128.76;105856;1253;74449;-52
2023/05/16 10:08:25;;;;;;;4.20;2.20;;;;;;;26.14;32.17;99126.40;105835;1256;63059;-52
2023/05/16 10:10:55;;;;;;;8.60;2.10;;;;;;;26.11;32.38;99158.69;105802;1254;62779;-52
2023/05/16 10:13:27;;;;;;;3.80;2.00;;;;;;;26.15;32.76;99233.27;105859;1254;74081;-52
2023/05/16 10:15:56;;;;;;;16.00;2.00;;;;;;;26.07;32.47;99191.92;105881;1256;66827;-54
2023/05/16 10:18:30;;;;;;;7.10;2.30;;;;;;;26.10;32.38;99189.30;105843;1257;74340;-52
2023/05/16 10:21:05;;;;;;;2.80;2.20;;;;;;;25.99;31.75;99114.86;105824;1254;61534;-52
2023/05/16 10:23:37;;;;;;;8.80;2.20;;;;;;;25.81;31.86;99130.15;105800;1252;62031;-52
2023/05/16 10:26:05;;;;;;;10.80;2.40;;;;;;;25.90;32.60;99215.73;105840;1257;75141;-52
2023/05/16 10:28:32;;;;;;;8.80;2.50;;;;;;;26.11;33.27;99292.41;105832;1257;65549;-51
2023/05/16 10:30:59;;;;;;;6.40;2.30;;;;;;;26.21;32.13;99186.77;105695;1254;73964;-54
2023/05/16 10:33:26;;;;;;;5.80;2.20;;;;;;;26.01;32.25;99211.41;105706;1259;63315;-52
2023/05/16 10:35:54;;;;;;;7.80;2.20;;;;;;;25.96;32.79;99218.20;105799;1257;61722;-52
2023/05/16 10:38:23;;;;;;;6.80;1.80;;;;;;;26.07;33.05;99289.66;105593;1254;75770;-53
2023/05/16 10:40:50;;;;;;;4.90;2.00;;;;;;;26.14;32.72;99252.38;105608;1255;66044;-57
2023/05/16 10:43:25;;;;;;;9.00;1.90;;;;;;;26.03;32.33;99217.25;105804;1257;73771;-53
2023/05/16 10:45:56;;;;;;;7.60;2.30;;;;;;;25.76;33.11;99314.35;105798;1254;62581;-52
2023/05/16 10:48:42;;;;;;;6.30;1.90;;;;;;;25.50;33.41;99345.88;105863;1256;61802;-52
2023/05/16 10:51:21;;;;;;;8.20;1.50;;;;;;;25.31;33.51;99394.09;105827;1254;74215;-51
2023/05/16 10:53:52;;;;;;;3.20;1.70;;;;;;;25.08;34.08;99448.57;105899;1254;67493;-51
2023/05/16 10:56:25;;;;;;;5.40;1.50;;;;;;;25.04;34.49;99510.48;105815;1253;74442;-51
2023/05/16 10:58:52;;;;;;;3.70;1.40;;;;;;;25.05;34.10;99504.29;105925;1254;61949;-51
2023/05/16 11:01:28;;;;;;;6.20;1.60;;;;;;;24.94;34.23;99513.73;105854;1254;61260;-51
2023/05/16 11:03:58;;;;;;;;;;;;;;;24.89;34.19;99518.13;105917;1254;74442;-52
2023/05/16 11:06:30;;;;;;;6.60;1.40;;;;;;;24.77;33.97;99507.90;105856;1254;67337;-52
2023/05/16 11:09:18;;;;;;;6.40;1.50;;;;;;;24.50;34.59;99537.49;105900;1256;75203;-52
2023/05/16 11:11:46;;;;;;;4.90;1.60;;;;;;;24.32;35.60;99666.90;105835;1257;62589;-52
2023/05/16 11:14:28;;;;;;;5.30;1.50;;;;;;;24.24;35.57;99708.29;105836;1257;63455;-52
2023/05/16 11:17:07;;;;;;;6.80;1.70;;;;;;;24.04;35.62;99714.07;105813;1255;75666;-52
2023/05/16 11:19:39;;;;;;;6.80;1.80;;;;;;;23.72;36.48;99798.98;105831;1254;67843;-52
2023/05/16 11:22:10;;;;;;;11.10;1.50;;;;;;;23.55;36.62;99847.11;105810;1254;75107;-52
2023/05/16 11:24:44;;;;;;;3.60;1.60;;;;;;;23.45;37.60;99963.08;105869;1254;61842;-52
2023/05/16 11:27:12;;;;;;;8.90;1.80;;;;;;;23.30;37.17;99957.39;105742;1259;62254;-52
2023/05/16 11:29:39;;;;;;;6.50;1.60;;;;;;;23.11;37.41;99974.52;105843;1254;76051;-52
2023/05/16 11:32:06;;;;;;;6.70;1.80;;;;;;;22.94;37.84;100031.89;106027;1252;66824;-53
2023/05/16 11:34:36;;;;;;;4.30;1.50;;;;;;;22.83;38.33;100071.14;105865;1257;75190;-51
2023/05/16 11:37:04;;;;;;;7.70;1.80;;;;;;;22.75;39.50;100191.86;105803;1255;62558;-55